Time;durP1;ratioP1;P1;durP2;ratioP2;P2;SDS_P1;SDS_P2;PMS_P1;PMS_P2;Temp;Humidity;BMP_temperature;BMP_pressure;BME280_temperature;BME280_humidity;BME280_pressure;Samples;Min_cycle;Max_cycle;Signal;HPM_P1;HPM_P2
2022/03/30 00:01:44;;;;;;;21.80;19.02;;;;;;;10.48;48.31;94409.91;5138433;27;20538;-69
2022/03/30 00:04:11;;;;;;;23.95;19.98;;;;;;;10.38;48.87;94413.25;5138581;27;20243;-70
2022/03/30 00:06:40;;;;;;;21.52;19.17;;;;;;;10.32;49.20;94410.81;5156620;27;20230;-69
2022/03/30 00:09:07;;;;;;;22.83;18.27;;;;;;;10.38;49.15;94405.78;5134872;28;20238;-69
2022/03/30 00:11:34;;;;;;;21.70;18.60;;;;;;;10.38;48.17;94408.53;5135976;28;20199;-69
2022/03/30 00:14:00;;;;;;;24.33;19.13;;;;;;;10.45;48.39;94399.59;5134966;28;20545;-69
2022/03/30 00:16:27;;;;;;;20.13;18.13;;;;;;;10.46;48.53;94403.97;5135605;28;20614;-70
2022/03/30 00:18:54;;;;;;;21.20;17.90;;;;;;;10.46;48.85;94398.47;5135314;28;20214;-69
2022/03/30 00:21:21;;;;;;;20.10;17.70;;;;;;;10.41;48.77;94405.06;5135697;28;20207;-68
2022/03/30 00:23:49;;;;;;;18.95;16.90;;;;;;;10.38;48.45;94391.22;5135451;28;20228;-68
2022/03/30 00:26:16;;;;;;;20.13;17.35;;;;;;;10.43;48.49;94394.47;5134708;28;20614;-69
2022/03/30 00:28:43;;;;;;;19.98;17.92;;;;;;;10.32;48.59;94401.75;5134746;28;20215;-69
2022/03/30 00:31:11;;;;;;;21.15;16.67;;;;;;;10.29;48.59;94391.47;5134816;28;20198;-69
2022/03/30 00:33:38;;;;;;;18.33;16.40;;;;;;;10.38;48.72;94382.94;5135778;28;20190;-69
2022/03/30 00:36:06;;;;;;;22.83;16.98;;;;;;;10.27;48.91;94393.78;5117443;28;20528;-69
2022/03/30 00:38:33;;;;;;;20.98;18.20;;;;;;;10.19;49.07;94398.34;5135675;28;20188;-69
2022/03/30 00:41:01;;;;;;;19.88;17.73;;;;;;;10.21;49.02;94395.25;5135647;28;20242;-69
2022/03/30 00:43:28;;;;;;;18.27;16.27;;;;;;;10.21;48.65;94398.00;5137210;27;20210;-69
2022/03/30 00:45:55;;;;;;;22.08;16.95;;;;;;;10.14;49.47;94404.16;5121466;27;20199;-69
2022/03/30 00:48:22;;;;;;;21.23;16.80;;;;;;;10.08;49.12;94392.63;5138970;27;20184;-69
2022/03/30 00:50:49;;;;;;;19.55;16.27;;;;;;;9.99;49.22;94405.88;5120801;27;20237;-69
2022/03/30 00:53:16;;;;;;;18.27;16.08;;;;;;;9.89;49.31;94401.75;5139064;27;20211;-69
2022/03/30 00:55:43;;;;;;;16.98;14.63;;;;;;;9.96;49.70;94397.53;5121045;27;20209;-69
2022/03/30 00:58:12;;;;;;;19.13;17.13;;;;;;;9.94;49.48;94403.41;5138818;27;20622;-69
2022/03/30 01:00:39;;;;;;;18.77;16.23;;;;;;;9.88;49.45;94402.13;5121076;27;20215;-69
2022/03/30 01:03:06;;;;;;;17.77;15.27;;;;;;;9.89;49.55;94387.19;5139075;27;20188;-69
2022/03/30 01:05:33;;;;;;;19.80;14.93;;;;;;;9.94;49.75;94384.13;5138872;27;20191;-69
2022/03/30 01:08:00;;;;;;;16.50;14.85;;;;;;;9.94;49.62;94380.56;5120563;27;20266;-69
2022/03/30 01:10:27;;;;;;;16.20;14.55;;;;;;;9.93;49.90;94385.28;5138588;27;20665;-69
2022/03/30 01:12:54;;;;;;;17.35;14.57;;;;;;;9.89;49.65;94385.22;5138668;27;20183;-69
2022/03/30 01:15:23;;;;;;;19.70;16.15;;;;;;;9.82;50.18;94382.31;5138358;27;20176;-69
2022/03/30 01:17:50;;;;;;;21.48;16.58;;;;;;;9.75;50.35;94381.41;5138204;27;20226;-69
2022/03/30 01:20:21;;;;;;;20.02;16.98;;;;;;;9.59;50.95;94379.53;5120255;27;20256;-69
2022/03/30 01:22:49;;;;;;;19.33;17.27;;;;;;;9.49;50.95;94385.63;5138585;27;20183;-69
2022/03/30 01:25:17;;;;;;;20.33;17.65;;;;;;;9.39;50.90;94380.69;5120541;27;20195;-69
2022/03/30 01:27:43;;;;;;;21.17;17.48;;;;;;;9.35;51.55;94379.81;5120321;27;20202;-69
2022/03/30 01:32:57;;;;;;;21.17;17.30;;;;;;;9.39;51.32;94377.94;5120569;27;20194;-68
2022/03/30 01:35:24;;;;;;;18.13;16.17;;;;;;;9.32;51.61;94383.28;5120487;27;20229;-68
2022/03/30 01:37:52;;;;;;;19.67;16.25;;;;;;;9.35;51.15;94388.06;5120293;27;20248;-68
2022/03/30 01:40:19;;;;;;;19.52;16.83;;;;;;;9.36;51.75;94384.16;5138389;27;20293;-68
2022/03/30 01:42:46;;;;;;;21.33;17.77;;;;;;;9.23;51.49;94394.53;5120280;27;20211;-69
2022/03/30 01:45:15;;;;;;;20.42;17.38;;;;;;;9.16;52.22;94381.41;5120086;27;20203;-68
2022/03/30 01:47:48;;;;;;;20.08;17.13;;;;;;;9.08;52.04;94396.16;5120044;27;20296;-69
2022/03/30 01:50:15;;;;;;;18.58;16.00;;;;;;;9.08;51.80;94401.66;5137979;27;20214;-69
2022/03/30 01:52:42;;;;;;;17.95;15.25;;;;;;;9.11;51.98;94394.63;5137769;27;20225;-69
2022/03/30 01:55:11;;;;;;;18.85;15.43;;;;;;;9.07;52.01;94397.31;5119209;27;20195;-69
2022/03/30 01:57:38;;;;;;;17.85;16.05;;;;;;;9.07;52.13;94394.56;5119852;27;20205;-69
2022/03/30 02:00:06;;;;;;;18.73;16.63;;;;;;;9.04;52.03;94395.28;5119718;27;20210;-69
2022/03/30 02:02:33;;;;;;;18.25;15.43;;;;;;;9.09;52.08;94399.72;5119934;27;20195;-68
2022/03/30 02:05:00;;;;;;;17.75;15.85;;;;;;;9.09;52.18;94402.47;5119823;27;20205;-69
2022/03/30 02:07:27;;;;;;;18.88;16.40;;;;;;;9.11;52.51;94400.13;5116551;27;20610;-69
2022/03/30 02:09:53;;;;;;;18.73;16.48;;;;;;;9.04;52.44;94395.28;5099247;28;20222;-69
2022/03/30 02:12:22;;;;;;;18.58;15.75;;;;;;;8.97;52.70;94397.88;5116812;28;20176;-69
2022/03/30 02:14:51;;;;;;;17.92;14.90;;;;;;;9.03;52.38;94401.13;5116717;28;20219;-69
2022/03/30 02:17:19;;;;;;;18.60;14.13;;;;;;;9.03;52.51;94403.88;5098988;28;20196;-69
2022/03/30 02:19:47;;;;;;;16.48;14.82;;;;;;;9.02;52.63;94414.09;5099105;28;20230;-69
2022/03/30 02:22:13;;;;;;;19.08;15.70;;;;;;;9.02;52.52;94411.34;5099177;28;20314;-69
2022/03/30 02:24:40;;;;;;;18.25;15.98;;;;;;;8.97;52.49;94413.56;5098764;28;20192;-69
2022/03/30 02:27:07;;;;;;;19.50;15.90;;;;;;;8.85;52.80;94419.97;5116604;28;20347;-69
2022/03/30 02:29:36;;;;;;;20.40;15.90;;;;;;;8.72;52.97;94424.00;5116586;28;20223;-69
2022/03/30 02:32:03;;;;;;;20.23;15.50;;;;;;;8.63;53.17;94424.19;5116601;28;20187;-68
2022/03/30 02:34:31;;;;;;;18.92;14.77;;;;;;;8.62;53.36;94412.41;5116418;28;20534;-68
2022/03/30 02:36:57;;;;;;;17.05;15.25;;;;;;;8.64;53.56;94420.28;5116455;28;20203;-68
2022/03/30 02:39:25;;;;;;;20.73;15.48;;;;;;;8.70;53.41;94420.81;5098838;28;20227;-68
2022/03/30 02:41:51;;;;;;;18.65;16.38;;;;;;;8.71;53.20;94414.94;5116195;28;20290;-68
2022/03/30 02:44:18;;;;;;;18.58;15.75;;;;;;;8.60;53.80;94411.16;5098563;28;20231;-68
2022/03/30 02:46:47;;;;;;;17.95;15.50;;;;;;;8.56;53.74;94421.25;5116380;28;20241;-68
2022/03/30 02:49:14;;;;;;;18.17;16.02;;;;;;;8.55;53.46;94425.97;5116319;28;20234;-68
2022/03/30 02:51:41;;;;;;;17.80;15.90;;;;;;;8.58;53.99;94429.97;5098413;28;20215;-68
2022/03/30 02:54:08;;;;;;;18.35;16.20;;;;;;;8.62;53.71;94419.84;5116262;28;20241;-68
2022/03/30 02:56:35;;;;;;;18.60;16.70;;;;;;;8.66;53.96;94418.78;5098378;28;20202;-68
2022/03/30 02:59:02;;;;;;;20.60;16.83;;;;;;;8.63;53.88;94399.44;5116155;28;20539;-67
2022/03/30 03:01:29;;;;;;;21.35;16.33;;;;;;;8.64;54.23;94404.59;5097912;28;20216;-68
2022/03/30 03:03:57;;;;;;;21.50;15.70;;;;;;;8.63;53.70;94408.47;5098067;28;20238;-68
2022/03/30 03:06:25;;;;;;;17.77;15.80;;;;;;;8.66;53.58;94407.78;5115984;28;20207;-68
2022/03/30 03:08:52;;;;;;;18.05;16.15;;;;;;;8.66;53.78;94399.53;5112883;27;20234;-68
2022/03/30 03:11:19;;;;;;;17.40;15.45;;;;;;;8.71;53.80;94411.41;5136239;27;20228;-68
2022/03/30 03:13:46;;;;;;;19.98;16.13;;;;;;;8.70;53.81;94401.56;5135946;27;20607;-68
2022/03/30 03:16:13;;;;;;;17.70;15.70;;;;;;;8.66;53.71;94406.97;5136307;27;20201;-68
2022/03/30 03:18:40;;;;;;;17.67;15.07;;;;;;;8.63;53.81;94405.72;5136003;27;20295;-67
2022/03/30 03:21:09;;;;;;;18.50;16.17;;;;;;;8.66;53.99;94405.03;5118873;28;20214;-68
2022/03/30 03:23:36;;;;;;;20.05;16.60;;;;;;;8.61;53.95;94407.25;5118708;27;20539;-68
2022/03/30 03:26:03;;;;;;;19.67;16.58;;;;;;;8.59;54.34;94401.31;5119013;28;20195;-68
2022/03/30 03:28:30;;;;;;;20.00;17.85;;;;;;;8.53;54.31;94399.97;5136808;27;20190;-67
2022/03/30 03:30:57;;;;;;;22.65;18.70;;;;;;;8.44;54.23;94395.47;5118814;28;20191;-68
2022/03/30 03:33:24;;;;;;;20.13;17.92;;;;;;;8.37;54.75;94403.53;5119213;27;20199;-68
2022/03/30 03:35:51;;;;;;;21.63;17.38;;;;;;;8.37;54.64;94400.78;5118938;28;20190;-68
2022/03/30 03:38:20;;;;;;;18.58;16.52;;;;;;;8.41;55.05;94400.88;5136504;27;20198;-68
2022/03/30 03:40:46;;;;;;;19.85;17.67;;;;;;;8.38;55.04;94407.09;5118651;28;20224;-68
2022/03/30 03:43:13;;;;;;;22.27;19.77;;;;;;;8.31;54.95;94404.13;5136555;28;20260;-68
2022/03/30 03:45:40;;;;;;;23.17;18.38;;;;;;;8.20;55.00;94393.66;5118289;28;20225;-67
2022/03/30 03:48:07;;;;;;;22.42;17.67;;;;;;;8.20;55.45;94396.41;5117571;28;20208;-67
2022/03/30 03:50:34;;;;;;;19.60;17.25;;;;;;;8.14;54.95;94405.28;5136008;28;20213;-67
2022/03/30 03:53:02;;;;;;;20.05;17.75;;;;;;;8.12;55.41;94400.13;5118236;28;20223;-69
2022/03/30 03:55:33;;;;;;;19.85;17.05;;;;;;;8.08;55.65;94393.75;5136018;28;20183;-67
2022/03/30 03:58:01;;;;;;;19.77;17.05;;;;;;;8.07;55.28;94389.41;5135971;28;20187;-67
2022/03/30 04:00:28;;;;;;;18.75;16.92;;;;;;;8.15;55.25;94388.44;5136282;28;20194;-68
2022/03/30 04:02:55;;;;;;;19.50;17.20;;;;;;;8.11;56.04;94384.81;5134987;28;20492;-69
2022/03/30 04:05:22;;;;;;;24.83;18.42;;;;;;;8.08;55.74;94387.47;5135993;28;20199;-69
2022/03/30 04:07:49;;;;;;;21.55;19.27;;;;;;;8.15;55.30;94387.66;5130240;28;20239;-68
2022/03/30 04:10:16;;;;;;;28.27;20.98;;;;;;;7.96;55.13;94391.88;5098029;28;20199;-68
2022/03/30 04:12:44;;;;;;;23.00;20.50;;;;;;;7.88;55.81;94394.78;5115664;28;20176;-68
2022/03/30 04:15:11;;;;;;;22.95;20.63;;;;;;;7.91;56.62;94394.09;5097974;28;20203;-68
2022/03/30 04:17:48;;;;;;;29.08;24.58;;;;;;;7.95;56.23;94394.97;5097680;28;20230;-67
2022/03/30 04:20:16;;;;;;;33.70;27.92;;;;;;;8.02;55.86;94406.13;5118996;28;20278;-67
2022/03/30 04:22:43;;;;;;;39.83;33.42;;;;;;;8.03;56.05;94404.22;5101613;28;20291;-67
2022/03/30 04:25:10;;;;;;;36.60;30.15;;;;;;;8.03;55.68;94398.72;5119274;28;20184;-67
2022/03/30 04:27:47;;;;;;;45.05;33.65;;;;;;;8.04;56.02;94406.59;5100961;28;20222;-67
2022/03/30 04:30:14;;;;;;;40.15;32.33;;;;;;;8.03;56.12;94401.47;5119358;28;20542;-67
2022/03/30 04:32:41;;;;;;;36.13;31.08;;;;;;;8.07;56.16;94397.66;5101409;28;20227;-67
2022/03/30 04:35:08;;;;;;;42.85;35.40;;;;;;;7.97;56.11;94404.47;5101369;28;20222;-67
2022/03/30 04:37:35;;;;;;;32.05;28.50;;;;;;;7.99;55.87;94398.63;5101194;28;20207;-67
2022/03/30 04:40:02;;;;;;;50.08;37.55;;;;;;;7.95;56.35;94393.06;5118607;28;20184;-67
2022/03/30 04:42:29;;;;;;;41.25;33.33;;;;;;;7.93;56.62;94395.34;5101053;28;20222;-67
2022/03/30 04:44:57;;;;;;;39.70;31.58;;;;;;;7.95;56.38;94395.78;5118690;28;20223;-67
2022/03/30 04:47:24;;;;;;;35.53;27.92;;;;;;;7.93;56.28;94406.31;5101072;28;20246;-67
2022/03/30 04:49:51;;;;;;;32.30;25.88;;;;;;;7.95;56.43;94401.28;5100499;28;20199;-67
2022/03/30 04:52:19;;;;;;;37.65;30.77;;;;;;;7.99;56.69;94395.06;5100834;28;20265;-67
2022/03/30 04:54:45;;;;;;;34.13;29.13;;;;;;;8.05;56.92;94402.69;5101153;28;20572;-67
2022/03/30 04:57:12;;;;;;;34.95;29.67;;;;;;;8.13;56.67;94403.66;5100874;28;20195;-67
2022/03/30 04:59:39;;;;;;;33.92;26.08;;;;;;;8.17;56.55;94405.38;5100696;28;20616;-67
2022/03/30 05:02:08;;;;;;;48.78;35.58;;;;;;;8.18;56.67;94404.22;5100486;28;20227;-67
2022/03/30 05:04:35;;;;;;;49.30;36.80;;;;;;;8.22;56.21;94409.00;5100736;28;20320;-67
2022/03/30 05:07:01;;;;;;;50.90;36.42;;;;;;;8.24;56.25;94406.69;5118144;28;20615;-67
2022/03/30 05:09:28;;;;;;;46.08;35.70;;;;;;;8.26;56.39;94409.91;5118403;28;20243;-67
2022/03/30 05:11:56;;;;;;;39.33;31.52;;;;;;;8.30;56.47;94413.53;5100511;28;20198;-67
2022/03/30 05:14:22;;;;;;;45.47;30.92;;;;;;;8.36;56.18;94420.38;5100207;28;20196;-67
2022/03/30 05:16:49;;;;;;;51.55;38.85;;;;;;;8.41;56.20;94415.41;5100545;28;20196;-67
2022/03/30 05:19:19;;;;;;;51.42;41.72;;;;;;;8.43;56.33;94417.81;5100355;28;20192;-67
2022/03/30 05:21:47;;;;;;;52.25;41.45;;;;;;;8.49;56.20;94419.13;5101229;28;20248;-67
2022/03/30 05:24:15;;;;;;;52.42;40.20;;;;;;;8.57;55.76;94418.19;5119269;28;20199;-67
2022/03/30 05:26:43;;;;;;;44.83;35.28;;;;;;;8.62;56.00;94417.09;5100651;28;20209;-67
2022/03/30 05:29:10;;;;;;;46.50;38.47;;;;;;;8.66;55.83;94417.97;5100180;28;20206;-67
2022/03/30 05:31:36;;;;;;;42.13;34.95;;;;;;;8.70;55.69;94418.84;5100220;28;20192;-67
2022/03/30 05:34:03;;;;;;;40.00;34.33;;;;;;;8.74;55.31;94421.69;5118328;28;20222;-67
2022/03/30 05:36:32;;;;;;;29.92;25.65;;;;;;;8.80;55.41;94421.06;5100142;28;20196;-67
2022/03/30 05:38:59;;;;;;;30.58;24.73;;;;;;;8.89;55.41;94405.16;5100705;28;20209;-67
2022/03/30 05:41:25;;;;;;;29.45;24.00;;;;;;;9.01;54.90;94409.75;5100499;28;20220;-67
2022/03/30 05:43:52;;;;;;;25.00;21.42;;;;;;;9.09;54.53;94414.25;5118443;28;20180;-68
2022/03/30 05:46:19;;;;;;;24.23;21.30;;;;;;;9.16;53.91;94406.16;5100646;28;20234;-68
2022/03/30 05:48:46;;;;;;;26.27;21.38;;;;;;;9.20;54.43;94410.94;5118447;28;20216;-68
2022/03/30 05:51:13;;;;;;;22.92;20.48;;;;;;;9.18;54.32;94414.03;5099764;28;20223;-67
2022/03/30 05:53:42;;;;;;;26.75;20.60;;;;;;;9.22;54.84;94412.16;5101675;28;20210;-68
2022/03/30 05:56:09;;;;;;;22.65;20.25;;;;;;;9.26;54.28;94410.31;5101937;28;20684;-68
2022/03/30 05:58:35;;;;;;;23.67;21.08;;;;;;;9.33;54.04;94412.41;5120162;28;20184;-68
2022/03/30 06:01:03;;;;;;;27.42;20.55;;;;;;;9.37;53.78;94411.34;5101668;28;20639;-68
2022/03/30 06:03:30;;;;;;;23.83;20.70;;;;;;;9.45;53.67;94406.78;5102174;28;20265;-68
2022/03/30 06:05:57;;;;;;;25.90;20.77;;;;;;;9.47;53.32;94401.69;5101388;28;20232;-68
2022/03/30 06:08:24;;;;;;;29.20;22.50;;;;;;;9.54;53.98;94414.81;5113226;27;20721;-68
2022/03/30 06:10:53;;;;;;;22.48;19.98;;;;;;;9.59;54.27;94414.53;5123676;27;20695;-68
2022/03/30 06:13:20;;;;;;;25.02;20.67;;;;;;;9.65;54.00;94424.06;5122382;27;20187;-67
2022/03/30 06:15:48;;;;;;;26.52;21.92;;;;;;;9.73;53.36;94425.00;5121457;27;20197;-67
2022/03/30 06:18:15;;;;;;;25.25;21.75;;;;;;;9.78;52.98;94414.50;5123473;27;20199;-67
2022/03/30 06:20:42;;;;;;;23.75;20.95;;;;;;;9.84;52.72;94415.00;5123555;27;20218;-67
2022/03/30 06:23:10;;;;;;;24.40;21.25;;;;;;;9.87;53.34;94419.78;5139460;27;20264;-67
2022/03/30 06:25:37;;;;;;;25.40;21.75;;;;;;;9.93;52.67;94415.59;5138822;27;20523;-67
2022/03/30 06:28:06;;;;;;;23.23;20.73;;;;;;;10.02;53.24;94415.34;5120597;27;20205;-67
2022/03/30 06:30:34;;;;;;;23.95;18.13;;;;;;;10.08;52.51;94414.69;5139049;27;20227;-67
2022/03/30 06:33:01;;;;;;;21.90;19.42;;;;;;;10.16;52.96;94417.56;5119981;27;20225;-67
2022/03/30 06:35:28;;;;;;;24.00;20.45;;;;;;;10.21;52.33;94422.81;5120223;27;20191;-68
2022/03/30 06:37:55;;;;;;;22.40;19.38;;;;;;;10.30;52.06;94429.69;5119183;27;20195;-68
2022/03/30 06:40:22;;;;;;;24.80;19.45;;;;;;;10.35;51.61;94421.13;5137018;27;20191;-67
2022/03/30 06:42:49;;;;;;;24.85;18.65;;;;;;;10.42;51.47;94431.47;5137258;27;20207;-67
2022/03/30 06:45:17;;;;;;;19.80;17.75;;;;;;;10.50;51.06;94437.91;5118984;27;20205;-67
2022/03/30 06:47:44;;;;;;;21.15;16.92;;;;;;;10.53;51.12;94432.47;5136951;27;20290;-67
2022/03/30 06:50:13;;;;;;;21.23;18.45;;;;;;;10.55;50.86;94440.34;5136780;27;20627;-67
2022/03/30 06:52:41;;;;;;;21.63;19.35;;;;;;;10.58;50.95;94434.91;5119141;27;20201;-67
2022/03/30 06:55:09;;;;;;;23.45;20.92;;;;;;;10.65;50.66;94434.22;5118750;27;20543;-67
2022/03/30 06:57:35;;;;;;;24.23;19.83;;;;;;;10.69;50.79;94429.56;5136764;27;20496;-67
2022/03/30 07:00:04;;;;;;;22.25;19.85;;;;;;;10.77;51.09;94442.28;5136473;27;20212;-67
2022/03/30 07:02:32;;;;;;;35.72;20.80;;;;;;;10.87;50.94;94440.88;5136918;27;20199;-67
2022/03/30 07:04:59;;;;;;;22.60;18.67;;;;;;;10.98;51.03;94438.28;5119042;27;20221;-67
2022/03/30 07:10:16;;;;;;;22.77;19.45;;;;;;;11.18;50.33;94425.97;5116306;28;20543;-67
2022/03/30 07:12:45;;;;;;;21.17;18.70;;;;;;;11.31;50.64;94426.56;5115888;28;20266;-67
2022/03/30 07:15:12;;;;;;;21.05;18.48;;;;;;;11.40;50.08;94424.31;5098303;28;20581;-67
2022/03/30 07:17:48;;;;;;;25.77;19.00;;;;;;;11.49;50.33;94419.31;5097563;28;20616;-67
2022/03/30 07:20:16;;;;;;;23.00;19.85;;;;;;;11.56;49.88;94419.41;5115705;28;20665;-67
2022/03/30 07:22:43;;;;;;;22.48;19.13;;;;;;;11.60;49.81;94411.16;5116054;28;20242;-67
2022/03/30 07:25:10;;;;;;;23.60;18.77;;;;;;;11.67;49.45;94415.97;5098188;28;20192;-67
2022/03/30 07:27:40;;;;;;;25.02;19.13;;;;;;;11.77;50.05;94418.09;5097843;28;20231;-67
2022/03/30 07:30:08;;;;;;;24.75;19.00;;;;;;;11.85;50.07;94410.72;5097824;28;20550;-67
2022/03/30 07:32:36;;;;;;;24.90;20.83;;;;;;;11.83;49.24;94411.03;5098345;28;20195;-67
2022/03/30 07:35:05;;;;;;;23.70;19.30;;;;;;;11.90;49.84;94408.38;5097499;28;20207;-67
2022/03/30 07:40:19;;;;;;;21.73;19.05;;;;;;;12.11;49.90;94420.88;5115859;28;20176;-67
2022/03/30 07:42:46;;;;;;;23.33;18.67;;;;;;;12.24;49.50;94416.66;5097867;28;20220;-67
2022/03/30 07:45:14;;;;;;;27.42;18.77;;;;;;;12.32;49.26;94423.84;5097703;28;20234;-67
2022/03/30 07:47:42;;;;;;;22.60;19.65;;;;;;;12.29;49.70;94424.63;5097720;28;20234;-67
2022/03/30 07:50:11;;;;;;;24.48;19.00;;;;;;;12.38;49.88;94427.88;5097654;28;20219;-67
2022/03/30 07:52:38;;;;;;;21.92;17.83;;;;;;;12.48;48.49;94418.88;5098214;28;20188;-67
2022/03/30 07:55:07;;;;;;;22.90;19.58;;;;;;;12.60;48.09;94417.00;5102002;28;20195;-67
2022/03/30 07:57:34;;;;;;;22.33;18.83;;;;;;;12.70;49.77;94416.28;5119385;28;20599;-67
2022/03/30 08:00:02;;;;;;;24.38;18.52;;;;;;;12.78;49.11;94406.88;5119620;28;20611;-67
2022/03/30 08:02:29;;;;;;;21.80;18.73;;;;;;;12.87;48.44;94401.81;5101746;28;20651;-67
2022/03/30 08:04:56;;;;;;;23.13;16.50;;;;;;;12.97;49.13;94392.00;5119602;28;20188;-67
2022/03/30 08:07:26;;;;;;;20.10;15.70;;;;;;;12.91;48.56;94394.34;5101707;28;20202;-67
2022/03/30 08:09:53;;;;;;;17.83;15.95;;;;;;;12.95;48.67;94400.69;5101669;28;20199;-67
2022/03/30 08:12:21;;;;;;;19.40;15.40;;;;;;;13.09;48.94;94397.22;5101627;28;20196;-67
2022/03/30 08:14:48;;;;;;;21.65;15.52;;;;;;;13.24;48.34;94393.41;5119076;28;20191;-67
2022/03/30 08:17:16;;;;;;;41.15;21.00;;;;;;;13.33;47.95;94395.84;5101435;28;20218;-67
2022/03/30 08:19:42;;;;;;;35.58;18.42;;;;;;;13.36;47.72;94395.06;5119258;28;20211;-67
2022/03/30 08:22:28;;;;;;;22.05;15.90;;;;;;;13.38;47.19;94402.97;5101279;28;20201;-67
2022/03/30 08:24:57;;;;;;;17.58;14.65;;;;;;;13.50;48.34;94391.56;5119270;28;20258;-67
2022/03/30 08:27:25;;;;;;;19.30;15.60;;;;;;;13.66;47.87;94392.06;5119240;28;20241;-67
2022/03/30 08:29:53;;;;;;;19.60;15.70;;;;;;;13.84;46.63;94399.66;5101119;28;20191;-67
2022/03/30 08:32:21;;;;;;;24.23;16.83;;;;;;;13.89;45.86;94371.53;5119434;28;20210;-67
2022/03/30 08:34:49;;;;;;;21.65;16.55;;;;;;;13.90;45.41;94381.44;5119222;28;20184;-68
2022/03/30 08:37:16;;;;;;;188.27;47.70;;;;;;;13.95;45.95;94370.00;5119326;28;20184;-68
2022/03/30 08:39:43;;;;;;;31.60;16.20;;;;;;;14.04;43.72;94375.16;5101224;28;20203;-67
2022/03/30 08:42:13;;;;;;;12.05;7.30;;;;;;;14.26;41.01;94371.22;5118654;28;20215;-67
2022/03/30 08:44:41;;;;;;;8.50;5.55;;;;;;;14.49;38.60;94353.44;5118831;28;20184;-67
2022/03/30 08:47:08;;;;;;;38.50;12.18;;;;;;;14.74;38.11;94350.69;5119094;28;20207;-67
2022/03/30 08:49:37;;;;;;;11.85;6.93;;;;;;;14.91;37.62;94336.81;5119235;28;20263;-67
2022/03/30 08:52:06;;;;;;;13.93;7.05;;;;;;;15.04;37.87;94336.41;5118851;28;20183;-68
2022/03/30 08:54:33;;;;;;;11.80;6.35;;;;;;;15.14;37.95;94335.56;5118746;28;20210;-68
2022/03/30 08:57:00;;;;;;;7.72;6.00;;;;;;;15.22;37.93;94314.16;5100534;28;20227;-68
2022/03/30 08:59:29;;;;;;;14.95;7.88;;;;;;;15.27;38.29;94316.50;5118507;28;20244;-68
2022/03/30 09:01:57;;;;;;;13.63;9.05;;;;;;;15.25;38.40;94327.22;5100608;28;20234;-68
2022/03/30 09:04:25;;;;;;;13.48;8.65;;;;;;;15.25;39.35;94322.47;5100251;28;20216;-68
2022/03/30 09:06:54;;;;;;;15.98;9.48;;;;;;;15.26;39.48;94323.25;5118255;28;20188;-68
2022/03/30 09:09:29;;;;;;;13.57;9.43;;;;;;;15.33;37.83;94342.69;5117888;28;20231;-68
2022/03/30 09:11:57;;;;;;;10.43;6.57;;;;;;;15.33;35.46;94309.34;5100479;28;20203;-68
2022/03/30 09:14:26;;;;;;;9.85;5.72;;;;;;;15.39;35.75;94314.06;5118523;28;20192;-67
2022/03/30 09:16:56;;;;;;;14.90;11.13;;;;;;;15.50;37.25;94316.03;5100585;28;20196;-67
2022/03/30 09:19:24;;;;;;;12.80;9.38;;;;;;;15.55;37.35;94301.72;5100013;28;20199;-67
2022/03/30 09:21:52;;;;;;;12.73;9.13;;;;;;;15.72;36.20;94308.41;5099897;28;20206;-68
2022/03/30 09:24:21;;;;;;;11.60;6.90;;;;;;;15.82;35.96;94297.25;5117944;28;20522;-68
2022/03/30 09:26:50;;;;;;;8.25;6.03;;;;;;;15.98;34.36;94307.13;5117816;28;20195;-68
2022/03/30 09:29:19;;;;;;;9.15;6.55;;;;;;;16.00;34.55;94288.81;5099977;28;20204;-68
2022/03/30 09:31:46;;;;;;;9.65;6.38;;;;;;;15.97;33.99;94300.75;5100463;28;20203;-69
2022/03/30 09:34:15;;;;;;;9.70;5.78;;;;;;;15.99;33.69;94309.47;5117739;28;20176;-68
2022/03/30 09:36:43;;;;;;;8.60;6.28;;;;;;;16.03;33.68;94304.69;5118071;28;20223;-68
2022/03/30 09:39:27;;;;;;;8.75;6.07;;;;;;;16.15;33.71;94295.06;5117776;28;20211;-68
2022/03/30 09:41:56;;;;;;;11.77;6.75;;;;;;;16.27;34.07;94277.13;5099697;28;20202;-68
2022/03/30 09:44:23;;;;;;;12.48;5.93;;;;;;;16.30;33.73;94293.78;5100424;28;20251;-68
2022/03/30 09:46:56;;;;;;;11.35;6.32;;;;;;;16.29;33.96;94269.16;5117717;28;20227;-68
2022/03/30 09:49:35;;;;;;;9.75;6.18;;;;;;;16.42;33.79;94258.31;5099803;28;20203;-68
2022/03/30 09:52:02;;;;;;;9.50;6.03;;;;;;;16.58;33.93;94253.00;5100215;28;20204;-68
2022/03/30 09:54:40;;;;;;;8.38;5.93;;;;;;;16.69;32.25;94267.63;5099592;28;20196;-68
2022/03/30 09:57:16;;;;;;;8.07;6.00;;;;;;;16.71;32.25;94248.53;5099397;28;20230;-68
2022/03/30 10:00:07;;;;;;;8.98;5.60;;;;;;;16.76;31.93;94267.59;5099407;28;20191;-67
2022/03/30 10:02:35;;;;;;;8.15;5.30;;;;;;;16.83;32.27;94250.03;5099327;28;20195;-67
2022/03/30 10:05:05;;;;;;;11.43;5.70;;;;;;;16.86;31.90;94243.63;5117151;28;20190;-68
2022/03/30 10:07:33;;;;;;;12.57;5.97;;;;;;;16.93;31.94;94229.63;5116965;28;20180;-68
2022/03/30 10:10:00;;;;;;;8.85;5.80;;;;;;;16.92;31.00;94228.06;5117093;28;20253;-67
2022/03/30 10:12:27;;;;;;;10.20;5.88;;;;;;;16.84;30.63;94237.66;5117031;28;20184;-67
2022/03/30 10:14:55;;;;;;;7.60;5.10;;;;;;;16.87;30.60;94222.91;5116595;28;20188;-67
2022/03/30 10:17:24;;;;;;;8.50;5.07;;;;;;;16.92;31.24;94213.31;5098779;28;20195;-67
2022/03/30 10:19:52;;;;;;;9.20;5.60;;;;;;;16.97;31.02;94208.09;5099266;28;20299;-67
2022/03/30 10:22:34;;;;;;;9.13;5.55;;;;;;;17.01;30.49;94211.63;5099001;28;20195;-67
2022/03/30 10:25:07;;;;;;;9.27;4.95;;;;;;;16.99;30.50;94207.66;5116978;28;20186;-67
2022/03/30 10:27:38;;;;;;;8.23;5.28;;;;;;;17.02;30.17;94196.47;5099012;28;20195;-67
2022/03/30 10:30:07;;;;;;;7.40;4.75;;;;;;;17.18;30.67;94192.34;5116714;28;20218;-67
2022/03/30 10:32:35;;;;;;;11.40;4.78;;;;;;;17.28;28.92;94200.59;5116627;28;20195;-67
2022/03/30 10:35:05;;;;;;;7.28;4.85;;;;;;;17.32;29.00;94208.91;5116605;28;20252;-67
2022/03/30 10:37:36;;;;;;;10.00;4.63;;;;;;;17.30;29.01;94194.56;5116638;28;20523;-67
2022/03/30 10:40:12;;;;;;;9.05;5.40;;;;;;;17.31;29.04;94198.94;5115861;28;20452;-67
2022/03/30 10:43:02;;;;;;;8.95;5.20;;;;;;;17.27;29.22;94195.41;5115166;28;20501;-67
2022/03/30 10:45:48;;;;;;;8.73;4.65;;;;;;;17.27;29.71;94187.84;5098912;28;20199;-67
2022/03/30 10:48:21;;;;;;;8.60;5.35;;;;;;;17.41;29.16;94194.44;5118342;28;20180;-67
2022/03/30 10:50:51;;;;;;;8.48;4.97;;;;;;;17.38;29.55;94189.69;5098196;28;20238;-67
2022/03/30 10:53:53;;;;;;;9.50;5.10;;;;;;;17.33;29.70;94200.09;5116363;28;20240;-67
2022/03/30 10:56:48;;;;;;;10.55;4.82;;;;;;;17.24;29.43;94171.16;5097886;28;20230;-67
2022/03/30 10:59:16;;;;;;;9.80;4.88;;;;;;;17.17;29.34;94194.31;5095943;28;20604;-68
2022/03/30 11:01:44;;;;;;;8.88;5.32;;;;;;;17.12;29.67;94182.88;5116261;28;20199;-68
2022/03/30 11:04:20;;;;;;;8.65;5.28;;;;;;;17.17;29.24;94191.53;5115954;28;20199;-68
2022/03/30 11:06:49;;;;;;;7.95;4.80;;;;;;;17.13;29.48;94187.22;5116359;28;20198;-68
2022/03/30 11:09:28;;;;;;;8.75;5.50;;;;;;;17.12;30.03;94189.22;5113615;27;20242;-68
2022/03/30 11:12:00;;;;;;;8.80;5.70;;;;;;;17.17;30.24;94183.19;5118531;27;20190;-67
2022/03/30 11:14:29;;;;;;;8.25;5.47;;;;;;;17.12;30.25;94194.78;5136236;27;20179;-67
2022/03/30 11:16:57;;;;;;;9.57;5.22;;;;;;;17.19;30.23;94210.63;5136604;27;20187;-67
2022/03/30 11:19:29;;;;;;;9.23;5.47;;;;;;;17.29;30.49;94193.00;5136087;27;20184;-67
2022/03/30 11:22:11;;;;;;;11.13;4.97;;;;;;;17.25;31.04;94183.91;5136599;27;20189;-67
2022/03/30 11:24:41;;;;;;;10.02;5.38;;;;;;;17.19;31.65;94191.91;5136370;27;20289;-67
2022/03/30 11:27:21;;;;;;;7.78;5.60;;;;;;;17.21;30.89;94185.91;5136197;27;20183;-68
2022/03/30 11:29:59;;;;;;;9.43;5.43;;;;;;;17.22;30.85;94179.94;5118635;27;20202;-68
2022/03/30 11:33:00;;;;;;;9.70;5.00;;;;;;;17.20;31.39;94174.00;5136224;27;20277;-68
2022/03/30 11:35:33;;;;;;;11.00;6.00;;;;;;;17.21;31.64;94186.72;5118463;27;20255;-68
2022/03/30 11:38:08;;;;;;;9.35;5.70;;;;;;;17.22;31.23;94187.53;5136167;27;20215;-68
2022/03/30 11:40:39;;;;;;;8.27;5.38;;;;;;;17.17;31.35;94185.19;5136357;27;20206;-68